Time;durP1;ratioP1;P1;durP2;ratioP2;P2;SDS_P1;SDS_P2;PMS_P1;PMS_P2;Temp;Humidity;BMP_temperature;BMP_pressure;BME280_temperature;BME280_humidity;BME280_pressure;Samples;Min_cycle;Max_cycle;Signal;HPM_P1;HPM_P2
2023/06/05 00:00:38;;;;;;;7.18;4.35;;;;;;;;;;5092422;28;20494;-69
2023/06/05 00:03:05;;;;;;;11.18;4.47;;;;;;;;;;5091240;28;20101;-69
2023/06/05 00:05:33;;;;;;;7.63;3.85;;;;;;;;;;5091255;28;20493;-69
2023/06/05 00:08:03;;;;;;;7.28;4.25;;;;;;;;;;5092470;28;20097;-69
2023/06/05 00:10:31;;;;;;;9.75;4.25;;;;;;;;;;5091110;28;20135;-69
2023/06/05 00:12:58;;;;;;;8.20;4.05;;;;;;;;;;5091340;28;20040;-69
2023/06/05 00:15:31;;;;;;;9.65;4.30;;;;;;;;;;5092039;28;20047;-69
2023/06/05 00:18:03;;;;;;;7.53;4.40;;;;;;;;;;5095569;28;20127;-69
2023/06/05 00:20:31;;;;;;;7.00;4.10;;;;;;;;;;5096071;28;20051;-69
2023/06/05 00:22:59;;;;;;;10.52;4.70;;;;;;;;;;5096338;28;20563;-69
2023/06/05 00:25:26;;;;;;;10.85;4.35;;;;;;;;;;5096327;28;20064;-69
2023/06/05 00:27:54;;;;;;;9.32;3.85;;;;;;;;;;5096077;28;20118;-69
2023/06/05 00:30:21;;;;;;;7.43;4.10;;;;;;;;;;5096259;28;20123;-69
2023/06/05 00:32:49;;;;;;;8.38;4.32;;;;;;;;;;5095074;28;20043;-69
2023/06/05 00:35:17;;;;;;;7.63;4.32;;;;;;;;;;5094751;28;20044;-69
2023/06/05 00:37:46;;;;;;;7.38;4.45;;;;;;;;;;5096142;28;20059;-69
2023/06/05 00:40:14;;;;;;;8.02;4.63;;;;;;;;;;5094649;28;20558;-69
2023/06/05 00:42:42;;;;;;;8.80;4.60;;;;;;;;;;5094700;28;20036;-69
2023/06/05 00:45:09;;;;;;;8.43;4.32;;;;;;;;;;5094756;28;20093;-69
2023/06/05 00:47:38;;;;;;;8.40;4.70;;;;;;;;;;5094757;28;20478;-69
2023/06/05 00:50:07;;;;;;;8.80;4.40;;;;;;;;;;5094503;28;20044;-69
2023/06/05 00:52:35;;;;;;;6.68;4.22;;;;;;;;;;5095578;28;20036;-69
2023/06/05 00:55:03;;;;;;;8.70;5.20;;;;;;;;;;5095478;28;20109;-69
2023/06/05 00:57:34;;;;;;;7.97;4.22;;;;;;;;;;5094350;28;20040;-69
2023/06/05 01:00:06;;;;;;;10.88;4.25;;;;;;;;;;5094412;28;20075;-69
2023/06/05 01:02:35;;;;;;;9.10;4.57;;;;;;;;;;5094348;28;20460;-69
2023/06/05 01:05:03;;;;;;;10.43;4.60;;;;;;;;;;5094394;28;20119;-69
2023/06/05 01:07:33;;;;;;;7.70;4.43;;;;;;;;;;5095309;28;20061;-69
2023/06/05 01:10:01;;;;;;;7.80;4.20;;;;;;;;;;5095615;28;20539;-70
2023/06/05 01:12:31;;;;;;;7.20;4.20;;;;;;;;;;5094281;28;20044;-70
2023/06/05 01:15:02;;;;;;;6.72;4.32;;;;;;;;;;5077725;28;20054;-70
2023/06/05 01:17:33;;;;;;;6.15;4.40;;;;;;;;;;5094105;28;20490;-70
2023/06/05 01:20:09;;;;;;;7.13;4.13;;;;;;;;;;5095194;28;20481;-70
2023/06/05 01:22:39;;;;;;;11.00;4.47;;;;;;;;;;5093881;28;20572;-69
2023/06/05 01:25:07;;;;;;;11.05;4.45;;;;;;;;;;5077108;28;20044;-69
2023/06/05 01:27:54;;;;;;;7.95;4.38;;;;;;;;;;5093565;28;20085;-69
2023/06/05 01:30:28;;;;;;;10.98;4.43;;;;;;;;;;5093331;28;20051;-69
2023/06/05 01:32:56;;;;;;;6.95;4.63;;;;;;;;;;5093856;28;20063;-69
2023/06/05 01:35:32;;;;;;;7.85;3.92;;;;;;;;;;5093767;28;20075;-69
2023/06/05 01:38:02;;;;;;;10.68;4.68;;;;;;;;;;5093558;28;20043;-68
2023/06/05 01:40:30;;;;;;;8.68;4.50;;;;;;;;;;5093635;28;20052;-69
2023/06/05 01:43:00;;;;;;;5.70;3.88;;;;;;;;;;5093716;28;20044;-69
2023/06/05 01:45:27;;;;;;;8.40;4.70;;;;;;;;;;5094931;28;20044;-69
2023/06/05 01:47:56;;;;;;;7.82;4.60;;;;;;;;;;5093633;28;20401;-69
2023/06/05 01:50:24;;;;;;;8.55;4.90;;;;;;;;;;5093506;28;20139;-69
2023/06/05 01:52:52;;;;;;;7.68;4.32;;;;;;;;;;5093598;28;20054;-69
2023/06/05 01:55:23;;;;;;;10.45;4.57;;;;;;;;;;5093228;28;20055;-69
2023/06/05 01:57:52;;;;;;;8.38;4.93;;;;;;;;;;5094464;28;20071;-69
2023/06/05 02:00:19;;;;;;;7.47;4.40;;;;;;;;;;5093192;28;20122;-69
2023/06/05 02:02:48;;;;;;;8.98;4.30;;;;;;;;;;5094454;28;20040;-69
2023/06/05 02:05:17;;;;;;;8.35;4.20;;;;;;;;;;5094603;28;20060;-69
2023/06/05 02:07:53;;;;;;;6.13;4.03;;;;;;;;;;5092798;28;20048;-69
2023/06/05 02:10:21;;;;;;;10.20;4.35;;;;;;;;;;5077546;28;20573;-69
2023/06/05 02:12:49;;;;;;;6.00;4.18;;;;;;;;;;5092797;28;20044;-69
2023/06/05 02:15:17;;;;;;;9.77;4.43;;;;;;;;;;5093068;28;20048;-69
2023/06/05 02:17:50;;;;;;;6.95;4.25;;;;;;;;;;5092761;28;20375;-69
2023/06/05 02:20:18;;;;;;;6.50;4.63;;;;;;;;;;5092702;28;20043;-69
2023/06/05 02:22:49;;;;;;;7.50;4.72;;;;;;;;;;5092659;28;20046;-69
2023/06/05 02:25:17;;;;;;;8.20;4.40;;;;;;;;;;5094071;28;20039;-68
2023/06/05 02:27:48;;;;;;;8.48;4.57;;;;;;;;;;5092701;28;20040;-68
2023/06/05 02:30:15;;;;;;;8.30;4.35;;;;;;;;;;5092705;28;20051;-69
2023/06/05 02:32:46;;;;;;;8.15;4.50;;;;;;;;;;5092406;28;20111;-68
2023/06/05 02:35:14;;;;;;;7.97;4.28;;;;;;;;;;5075710;28;20078;-69
2023/06/05 02:37:43;;;;;;;8.10;4.82;;;;;;;;;;5093826;28;20041;-69
2023/06/05 02:40:12;;;;;;;9.73;4.78;;;;;;;;;;5092167;28;20405;-69
2023/06/05 02:42:40;;;;;;;9.55;4.63;;;;;;;;;;5092331;28;20075;-70
2023/06/05 02:45:08;;;;;;;9.65;4.85;;;;;;;;;;5092341;28;20601;-68
2023/06/05 02:47:36;;;;;;;10.20;5.00;;;;;;;;;;5075713;28;20043;-68
2023/06/05 02:50:05;;;;;;;8.73;4.80;;;;;;;;;;5092290;28;20409;-68
2023/06/05 02:52:38;;;;;;;7.47;4.20;;;;;;;;;;5092194;28;20051;-68
2023/06/05 02:55:14;;;;;;;8.85;4.95;;;;;;;;;;5092194;28;20044;-68
2023/06/05 02:57:44;;;;;;;9.40;4.93;;;;;;;;;;5092212;28;20047;-68
2023/06/05 03:00:18;;;;;;;9.82;5.07;;;;;;;;;;5092144;28;20502;-68
2023/06/05 03:02:52;;;;;;;;;;;;;;;;;;5092555;28;20080;-68
2023/06/05 03:05:24;;;;;;;8.95;4.90;;;;;;;;;;5092003;28;19936;-68
2023/06/05 03:07:56;;;;;;;10.20;4.93;;;;;;;;;;5092091;28;20048;-68
2023/06/05 03:10:24;;;;;;;7.18;4.72;;;;;;;;;;5091960;28;20428;-68
2023/06/05 03:12:52;;;;;;;9.95;5.22;;;;;;;;;;5075126;28;20185;-68
2023/06/05 03:15:20;;;;;;;5.60;4.35;;;;;;;;;;5091581;28;20047;-68
2023/06/05 03:17:50;;;;;;;7.55;4.75;;;;;;;;;;5091745;28;20499;-68
2023/06/05 03:20:22;;;;;;;9.88;5.03;;;;;;;;;;5091761;28;20044;-68
2023/06/05 03:22:51;;;;;;;8.27;5.15;;;;;;;;;;5091462;28;20094;-69
2023/06/05 03:25:19;;;;;;;12.48;5.20;;;;;;;;;;5091544;28;20135;-68
2023/06/05 03:27:50;;;;;;;10.57;5.00;;;;;;;;;;5091425;28;20040;-69
2023/06/05 03:30:20;;;;;;;9.93;4.32;;;;;;;;;;5091719;28;20649;-69
2023/06/05 03:32:52;;;;;;;12.95;5.22;;;;;;;;;;5091302;28;20051;-69
2023/06/05 03:35:20;;;;;;;9.20;4.43;;;;;;;;;;5091302;28;20044;-69
2023/06/05 03:37:48;;;;;;;9.05;4.68;;;;;;;;;;5091667;28;20040;-69
2023/06/05 03:40:16;;;;;;;11.70;5.05;;;;;;;;;;5091458;28;20489;-69
2023/06/05 03:42:43;;;;;;;8.18;4.97;;;;;;;;;;5092573;28;20036;-69
2023/06/05 03:45:13;;;;;;;8.65;4.35;;;;;;;;;;5091274;28;20109;-69
2023/06/05 03:47:43;;;;;;;7.68;4.85;;;;;;;;;;5091248;28;20493;-69
2023/06/05 03:50:12;;;;;;;10.75;5.20;;;;;;;;;;5091509;28;20135;-69
2023/06/05 03:52:43;;;;;;;9.80;4.68;;;;;;;;;;5090555;28;20032;-69
2023/06/05 03:55:11;;;;;;;8.30;4.95;;;;;;;;;;5091236;28;20044;-69
2023/06/05 03:57:40;;;;;;;7.10;4.70;;;;;;;;;;5091308;28;20485;-68
2023/06/05 04:00:11;;;;;;;7.50;4.70;;;;;;;;;;5091169;28;20040;-69
2023/06/05 04:02:52;;;;;;;6.57;4.80;;;;;;;;;;5091140;28;20055;-69
2023/06/05 04:05:21;;;;;;;10.75;4.80;;;;;;;;;;5091429;28;20518;-69
2023/06/05 04:07:49;;;;;;;8.95;5.25;;;;;;;;;;5091364;28;20056;-69
2023/06/05 04:10:17;;;;;;;8.65;4.90;;;;;;;;;;5090984;28;20151;-69
2023/06/05 04:12:45;;;;;;;8.52;5.00;;;;;;;;;;5091145;28;20115;-69
2023/06/05 04:15:12;;;;;;;10.88;4.85;;;;;;;;;;5090846;28;20052;-69
2023/06/05 04:17:41;;;;;;;9.93;5.20;;;;;;;;;;5091036;28;20036;-69
2023/06/05 04:20:14;;;;;;;7.40;4.70;;;;;;;;;;5090860;28;20040;-69
2023/06/05 04:22:43;;;;;;;8.40;5.07;;;;;;;;;;5091033;28;20048;-69
2023/06/05 04:25:12;;;;;;;8.27;4.82;;;;;;;;;;5074406;28;20047;-69
2023/06/05 04:27:41;;;;;;;9.77;5.30;;;;;;;;;;5091042;28;20051;-69
2023/06/05 04:30:09;;;;;;;6.47;5.10;;;;;;;;;;5090937;28;20403;-69
2023/06/05 04:32:38;;;;;;;7.10;5.20;;;;;;;;;;5090746;28;20097;-69
2023/06/05 04:35:08;;;;;;;10.27;5.28;;;;;;;;;;5090709;28;20054;-69
2023/06/05 04:37:36;;;;;;;8.13;5.28;;;;;;;;;;5090984;28;20044;-69
2023/06/05 04:40:09;;;;;;;11.18;5.32;;;;;;;;;;5083777;28;20036;-69
2023/06/05 04:42:39;;;;;;;7.68;5.05;;;;;;;;;;5075823;28;20048;-69
2023/06/05 04:45:10;;;;;;;7.93;4.90;;;;;;;;;;5070610;28;20041;-70
2023/06/05 04:47:43;;;;;;;;;;;;;;;;;;5071052;28;20056;-70
2023/06/05 04:50:21;;;;;;;8.77;5.10;;;;;;;;;;5070712;28;19920;-70
2023/06/05 04:52:52;;;;;;;10.15;4.93;;;;;;;;;;5070883;28;20044;-70
2023/06/05 04:55:20;;;;;;;11.32;5.07;;;;;;;;;;5070516;28;20045;-70
2023/06/05 04:57:51;;;;;;;8.30;4.90;;;;;;;;;;5070563;28;20494;-70
2023/06/05 05:00:19;;;;;;;8.27;5.25;;;;;;;;;;5070448;28;20044;-70
2023/06/05 05:02:47;;;;;;;10.48;5.50;;;;;;;;;;5071400;28;20045;-70
2023/06/05 05:05:15;;;;;;;10.52;5.03;;;;;;;;;;5075182;28;20049;-70
2023/06/05 05:07:45;;;;;;;8.20;5.60;;;;;;;;;;5074052;28;20132;-70
2023/06/05 05:10:14;;;;;;;13.82;5.63;;;;;;;;;;5073951;28;20049;-70
2023/06/05 05:12:42;;;;;;;8.32;5.40;;;;;;;;;;5073957;28;20043;-70
2023/06/05 05:15:10;;;;;;;10.35;5.70;;;;;;;;;;5073251;28;20048;-70
2023/06/05 05:17:38;;;;;;;16.90;5.97;;;;;;;;;;5073830;28;20048;-70
2023/06/05 05:20:06;;;;;;;11.20;6.47;;;;;;;;;;5073853;28;20044;-70
2023/06/05 05:22:37;;;;;;;11.45;5.80;;;;;;;;;;5073691;28;20072;-70
2023/06/05 05:25:06;;;;;;;9.68;5.32;;;;;;;;;;5073665;28;20045;-70
2023/06/05 05:27:33;;;;;;;9.45;5.25;;;;;;;;;;5083832;28;20040;-70
2023/06/05 05:30:02;;;;;;;10.70;6.13;;;;;;;;;;5093884;28;20044;-71
2023/06/05 05:32:30;;;;;;;12.13;5.38;;;;;;;;;;5082780;28;20044;-69
2023/06/05 05:34:58;;;;;;;12.95;6.03;;;;;;;;;;5083111;28;20048;-69
2023/06/05 05:37:26;;;;;;;8.48;5.20;;;;;;;;;;5091118;28;20078;-69
2023/06/05 05:39:54;;;;;;;11.80;5.25;;;;;;;;;;5087255;28;20032;-69
2023/06/05 05:42:22;;;;;;;8.95;5.15;;;;;;;;;;5083055;28;20040;-68
2023/06/05 05:44:49;;;;;;;11.50;5.80;;;;;;;;;;5081760;28;20040;-69
2023/06/05 05:47:17;;;;;;;11.63;5.20;;;;;;;;;;5103801;28;20039;-68
2023/06/05 05:49:44;;;;;;;8.82;5.40;;;;;;;;;;5114889;28;20043;-69
2023/06/05 05:52:12;;;;;;;6.55;4.63;;;;;;;;;;5115402;28;20043;-69
2023/06/05 05:54:39;;;;;;;13.10;5.20;;;;;;;;;;5114990;28;20092;-69
2023/06/05 05:57:07;;;;;;;19.13;5.45;;;;;;;;;;5114946;28;20035;-69
2023/06/05 05:59:34;;;;;;;8.98;5.00;;;;;;;;;;5114987;28;20032;-69
2023/06/05 06:02:08;;;;;;;9.52;5.55;;;;;;;;;;5114992;28;20040;-69
2023/06/05 06:04:36;;;;;;;9.85;5.40;;;;;;;;;;5114910;28;20031;-69
2023/06/05 06:07:05;;;;;;;9.38;5.85;;;;;;;;;;5113690;28;20127;-68
2023/06/05 06:09:33;;;;;;;10.68;5.88;;;;;;;;;;5114713;28;20218;-70
2023/06/05 06:12:05;;;;;;;12.35;6.38;;;;;;;;;;5106073;28;20056;-68
2023/06/05 06:14:33;;;;;;;13.23;5.53;;;;;;;;;;5087583;28;20458;-68
2023/06/05 06:17:02;;;;;;;13.30;6.38;;;;;;;;;;5093864;28;20513;-68
2023/06/05 06:19:31;;;;;;;12.73;6.13;;;;;;;;;;5093688;28;20386;-68
2023/06/05 06:21:58;;;;;;;12.77;5.18;;;;;;;;;;5079519;28;20032;-69
2023/06/05 06:24:26;;;;;;;14.73;5.57;;;;;;;;;;5091572;28;20040;-68
2023/06/05 06:26:54;;;;;;;9.77;5.18;;;;;;;;;;5090921;28;20103;-68
2023/06/05 06:29:27;;;;;;;21.75;5.85;;;;;;;;;;5073669;28;20041;-69
2023/06/05 06:31:55;;;;;;;11.40;5.10;;;;;;;;;;5087158;28;20063;-69
2023/06/05 06:34:24;;;;;;;9.70;5.07;;;;;;;;;;5092596;28;20159;-69
2023/06/05 06:36:51;;;;;;;10.95;6.20;;;;;;;;;;5093415;28;20036;-69
2023/06/05 06:39:22;;;;;;;9.38;5.00;;;;;;;;;;5076044;28;20045;-69
2023/06/05 06:41:51;;;;;;;12.10;5.10;;;;;;;;;;5062701;28;20051;-69
2023/06/05 06:44:21;;;;;;;7.53;5.30;;;;;;;;;;5092144;28;20043;-69
2023/06/05 06:46:49;;;;;;;7.30;5.40;;;;;;;;;;5083292;28;20036;-69
2023/06/05 06:49:16;;;;;;;8.32;5.25;;;;;;;;;;5089311;28;20040;-69
2023/06/05 06:51:44;;;;;;;11.02;5.90;;;;;;;;;;5092030;28;20036;-70
2023/06/05 06:54:37;;;;;;;7.70;5.63;;;;;;;;;;5093344;28;20036;-69
2023/06/05 06:57:02;;;;;;;8.23;5.22;;;;;;;;;;5092874;28;20044;-70
2023/06/05 06:59:29;;;;;;;6.57;4.55;;;;;;;;;;5089765;28;20038;-69
2023/06/05 07:02:11;;;;;;;8.85;5.03;;;;;;;;;;5076555;28;20064;-69
2023/06/05 07:04:41;;;;;;;10.80;5.07;;;;;;;;;;5072960;28;20037;-69
2023/06/05 07:07:10;;;;;;;10.30;5.22;;;;;;;;;;5082631;28;20446;-71
2023/06/05 07:09:38;;;;;;;10.15;4.45;;;;;;;;;;5072654;28;20032;-69
2023/06/05 07:12:10;;;;;;;8.90;4.13;;;;;;;;;;5073035;28;20071;-69
2023/06/05 07:14:38;;;;;;;7.80;4.90;;;;;;;;;;5071833;28;20043;-70
2023/06/05 07:17:05;;;;;;;9.05;5.35;;;;;;;;;;5072526;28;20052;-70
2023/06/05 07:19:34;;;;;;;10.05;4.40;;;;;;;;;;5072578;28;20044;-70
2023/06/05 07:22:04;;;;;;;7.10;4.97;;;;;;;;;;5077908;28;20409;-70
2023/06/05 07:24:32;;;;;;;8.57;4.75;;;;;;;;;;5080091;28;20044;-70
2023/06/05 07:27:00;;;;;;;9.23;5.00;;;;;;;;;;5071309;28;20486;-70
2023/06/05 07:29:28;;;;;;;7.50;4.85;;;;;;;;;;5073211;28;20071;-71
2023/06/05 09:01:57;;;;;;;3.95;2.53;;;;;;;;;;6328471;22;20370;-77
2023/06/05 09:04:25;;;;;;;6.53;2.78;;;;;;;;;;6378946;22;20014;-76
2023/06/05 09:06:53;;;;;;;5.95;3.13;;;;;;;;;;6378807;22;20018;-77
2023/06/05 09:09:21;;;;;;;5.03;2.72;;;;;;;;;;6378729;22;20024;-77
2023/06/05 09:12:01;;;;;;;5.70;2.53;;;;;;;;;;6350955;22;20018;-77
2023/06/05 09:14:28;;;;;;;5.72;2.80;;;;;;;;;;6378780;22;20015;-76
2023/06/05 09:16:56;;;;;;;9.23;6.68;;;;;;;;;;6351194;22;20014;-74
2023/06/05 09:19:27;;;;;;;7.28;3.95;;;;;;;;;;6378569;22;20085;-78
2023/06/05 09:21:55;;;;;;;3.55;2.35;;;;;;;;;;6378093;22;20025;-75
2023/06/05 09:24:24;;;;;;;13.70;10.80;;;;;;;;;;6378753;22;20055;-76
2023/06/05 09:27:08;;;;;;;5.60;2.75;;;;;;;;;;6378549;22;20029;-75
2023/06/05 09:29:37;;;;;;;4.40;2.70;;;;;;;;;;6378570;22;20037;-76
2023/06/05 09:32:06;;;;;;;5.07;2.60;;;;;;;;;;6378437;22;20014;-77
2023/06/05 09:34:35;;;;;;;5.43;2.80;;;;;;;;;;6378869;22;20327;-76
2023/06/05 09:37:04;;;;;;;4.25;2.55;;;;;;;;;;6377997;22;20014;-75
2023/06/05 09:39:32;;;;;;;4.47;2.38;;;;;;;;;;6378345;22;20014;-75
2023/06/05 09:42:00;;;;;;;8.80;5.05;;;;;;;;;;6351137;22;20022;-76
2023/06/05 09:44:28;;;;;;;5.57;3.10;;;;;;;;;;6378301;22;20018;-81
2023/06/05 09:47:12;;;;;;;4.50;2.80;;;;;;;;;;6378613;22;20081;-78
2023/06/05 09:49:40;;;;;;;3.72;2.25;;;;;;;;;;6378269;22;20020;-80
2023/06/05 09:52:09;;;;;;;6.13;2.80;;;;;;;;;;6378282;22;20014;-79
2023/06/05 09:54:38;;;;;;;6.25;3.60;;;;;;;;;;6378553;22;20014;-79
2023/06/05 09:57:06;;;;;;;4.63;2.70;;;;;;;;;;6351015;22;20089;-78
2023/06/05 09:59:35;;;;;;;4.28;2.53;;;;;;;;;;6378453;22;20044;-79
2023/06/05 10:02:05;;;;;;;5.60;2.63;;;;;;;;;;6346105;22;20022;-77
2023/06/05 10:04:41;;;;;;;5.13;2.72;;;;;;;;;;6371178;22;20075;-78
2023/06/05 10:07:09;;;;;;;4.50;2.55;;;;;;;;;;6371226;22;20059;-80
2023/06/05 10:09:37;;;;;;;5.75;3.05;;;;;;;;;;6370967;22;20014;-78
2023/06/05 10:12:07;;;;;;;4.88;3.75;;;;;;;;;;6343751;22;20014;-79
2023/06/05 10:14:36;;;;;;;5.10;3.00;;;;;;;;;;6371351;22;20037;-77
2023/06/05 10:17:03;;;;;;;6.18;2.70;;;;;;;;;;6370920;22;20022;-78
2023/06/05 10:19:31;;;;;;;6.25;2.80;;;;;;;;;;6371205;22;20021;-76
2023/06/05 10:21:59;;;;;;;4.20;2.67;;;;;;;;;;6371104;22;20015;-76
2023/06/05 10:24:32;;;;;;;4.93;2.90;;;;;;;;;;6370865;22;20015;-77
2023/06/05 10:27:02;;;;;;;4.55;2.90;;;;;;;;;;6370887;22;20071;-74
2023/06/05 10:29:33;;;;;;;6.82;3.25;;;;;;;;;;6370713;22;20011;-75
2023/06/05 10:32:02;;;;;;;8.98;3.50;;;;;;;;;;6371209;22;20018;-75
2023/06/05 10:34:30;;;;;;;4.00;2.13;;;;;;;;;;6370674;22;20439;-77
2023/06/05 10:37:05;;;;;;;3.10;2.20;;;;;;;;;;6370832;22;20014;-76
2023/06/05 10:39:34;;;;;;;8.43;3.03;;;;;;;;;;6370676;22;20021;-77
2023/06/05 10:42:02;;;;;;;5.10;2.72;;;;;;;;;;6371000;22;20018;-78
2023/06/05 10:44:42;;;;;;;4.72;2.40;;;;;;;;;;6370646;22;20466;-80
2023/06/05 10:47:32;;;;;;;7.45;3.10;;;;;;;;;;6370516;22;20042;-77
2023/06/05 10:50:21;;;;;;;6.03;2.88;;;;;;;;;;6370457;22;20435;-78
2023/06/05 10:52:49;;;;;;;3.47;2.58;;;;;;;;;;6370344;22;20060;-74
2023/06/05 10:55:17;;;;;;;6.28;2.65;;;;;;;;;;6343036;22;20014;-76
2023/06/05 10:58:03;;;;;;;6.43;2.97;;;;;;;;;;6370581;22;20025;-76
2023/06/05 11:00:31;;;;;;;6.20;2.42;;;;;;;;;;6342397;22;20022;-77
2023/06/05 11:03:00;;;;;;;3.33;2.35;;;;;;;;;;6370239;22;20028;-76
2023/06/05 11:05:29;;;;;;;6.03;2.40;;;;;;;;;;6370420;22;20022;-76
2023/06/05 11:08:19;;;;;;;2.72;1.92;;;;;;;;;;6370362;22;20014;-76
2023/06/05 11:11:09;;;;;;;4.55;2.30;;;;;;;;;;6342620;22;20076;-76
2023/06/05 11:13:58;;;;;;;7.97;2.85;;;;;;;;;;6369885;22;20022;-75
2023/06/05 11:16:33;;;;;;;4.82;2.25;;;;;;;;;;6369228;22;20018;-76
2023/06/05 11:19:30;;;;;;;4.40;1.98;;;;;;;;;;6369996;22;20336;-74
2023/06/05 11:22:05;;;;;;;6.20;2.30;;;;;;;;;;6321935;22;20018;-75
2023/06/05 11:24:34;;;;;;;2.38;1.85;;;;;;;;;;6370122;22;20309;-75
2023/06/05 11:27:03;;;;;;;3.40;2.47;;;;;;;;;;6369994;22;20015;-70
2023/06/05 11:29:31;;;;;;;3.40;1.95;;;;;;;;;;6369512;22;20017;-72
2023/06/05 11:31:59;;;;;;;2.88;2.13;;;;;;;;;;6368340;22;20018;-72
2023/06/05 11:34:29;;;;;;;3.58;2.30;;;;;;;;;;6342325;22;20022;-73
2023/06/05 11:36:57;;;;;;;3.80;1.88;;;;;;;;;;6369771;22;20085;-72
2023/06/05 11:39:29;;;;;;;3.50;1.70;;;;;;;;;;6370017;22;20141;-71
2023/06/05 11:41:57;;;;;;;5.03;2.10;;;;;;;;;;6369315;22;20443;-72
2023/06/05 11:44:32;;;;;;;3.03;2.00;;;;;;;;;;6369669;22;20071;-73
2023/06/05 11:47:02;;;;;;;4.57;2.67;;;;;;;;;;6369162;22;20014;-71
2023/06/05 11:49:30;;;;;;;6.40;2.50;;;;;;;;;;6369554;22;20068;-69
2023/06/05 11:51:57;;;;;;;5.28;2.53;;;;;;;;;;6369426;22;20050;-73
2023/06/05 11:54:29;;;;;;;7.28;3.22;;;;;;;;;;6369777;22;20021;-72
2023/06/05 11:57:07;;;;;;;4.65;3.58;;;;;;;;;;6340960;22;20347;-73
2023/06/05 11:59:35;;;;;;;2.45;1.67;;;;;;;;;;6373151;22;20332;-72
2023/06/05 12:02:03;;;;;;;2.65;1.95;;;;;;;;;;6334190;22;20019;-72
2023/06/05 12:04:32;;;;;;;3.67;2.30;;;;;;;;;;6338095;22;20015;-74
2023/06/05 12:07:01;;;;;;;6.05;3.22;;;;;;;;;;6338487;22;20075;-74
2023/06/05 12:09:29;;;;;;;4.28;2.60;;;;;;;;;;6338448;22;20557;-75
2023/06/05 12:12:06;;;;;;;4.20;2.30;;;;;;;;;;6336936;22;20015;-75
2023/06/05 12:14:35;;;;;;;2.97;2.22;;;;;;;;;;6338222;22;20015;-73
2023/06/05 12:17:11;;;;;;;5.72;2.33;;;;;;;;;;6338723;22;20633;-73
2023/06/05 12:19:40;;;;;;;4.45;3.00;;;;;;;;;;6338119;22;20068;-72
2023/06/05 12:22:09;;;;;;;3.55;2.47;;;;;;;;;;6338236;22;20018;-73
2023/06/05 12:24:37;;;;;;;3.78;2.17;;;;;;;;;;6336649;22;20438;-72
2023/06/05 12:27:05;;;;;;;8.02;2.35;;;;;;;;;;6338068;22;21086;-73
2023/06/05 12:29:40;;;;;;;3.17;2.10;;;;;;;;;;6337576;22;20026;-72
2023/06/05 12:32:28;;;;;;;5.00;2.40;;;;;;;;;;6337887;22;20034;-73
2023/06/05 12:34:56;;;;;;;2.60;2.05;;;;;;;;;;6310719;22;20412;-74
2023/06/05 12:37:37;;;;;;;2.90;2.10;;;;;;;;;;6338482;22;20042;-74
2023/06/05 12:40:10;;;;;;;2.70;2.08;;;;;;;;;;6338282;22;20060;-74
2023/06/05 12:42:40;;;;;;;3.22;2.30;;;;;;;;;;6338396;22;20019;-73
2023/06/05 12:45:08;;;;;;;2.42;2.00;;;;;;;;;;6337503;22;20802;-74
2023/06/05 12:47:35;;;;;;;3.05;2.30;;;;;;;;;;6334305;22;20023;-74
2023/06/05 12:50:04;;;;;;;6.32;2.38;;;;;;;;;;6336782;22;20513;-75
2023/06/05 12:52:32;;;;;;;5.47;2.28;;;;;;;;;;6337119;22;20386;-76
2023/06/05 12:55:00;;;;;;;3.58;2.15;;;;;;;;;;6337074;22;20011;-74
2023/06/05 12:57:28;;;;;;;3.60;2.25;;;;;;;;;;6337070;22;20082;-73
2023/06/05 12:59:55;;;;;;;5.25;2.30;;;;;;;;;;6337659;22;20049;-74
2023/06/05 13:02:23;;;;;;;2.70;2.00;;;;;;;;;;6353169;22;20052;-75
2023/06/05 13:04:51;;;;;;;4.10;2.20;;;;;;;;;;6369589;22;20305;-73
2023/06/05 13:07:21;;;;;;;2.38;1.90;;;;;;;;;;6369709;22;20498;-74
2023/06/05 13:09:51;;;;;;;4.35;2.47;;;;;;;;;;6369627;22;20317;-74
2023/06/05 13:12:19;;;;;;;2.75;2.22;;;;;;;;;;6341417;22;20022;-76
2023/06/05 13:14:47;;;;;;;3.50;2.10;;;;;;;;;;6341690;22;20019;-73
2023/06/05 13:17:14;;;;;;;3.45;2.08;;;;;;;;;;6369531;22;20022;-74
2023/06/05 13:19:42;;;;;;;9.40;7.95;;;;;;;;;;6369841;22;20340;-74
2023/06/05 13:22:09;;;;;;;5.00;2.38;;;;;;;;;;6369403;22;20067;-73
2023/06/05 13:24:37;;;;;;;2.78;2.00;;;;;;;;;;6369489;22;20015;-76
2023/06/05 13:27:04;;;;;;;4.80;2.50;;;;;;;;;;6369619;22;20030;-74
2023/06/05 13:29:32;;;;;;;3.35;1.77;;;;;;;;;;6369474;22;20443;-76
2023/06/05 13:31:59;;;;;;;3.60;2.20;;;;;;;;;;6369741;22;20391;-74
2023/06/05 13:34:27;;;;;;;4.00;2.47;;;;;;;;;;6369529;22;20017;-73
2023/06/05 13:36:58;;;;;;;4.75;2.13;;;;;;;;;;6370471;22;20094;-75
2023/06/05 13:39:40;;;;;;;2.63;1.90;;;;;;;;;;6371514;22;20011;-76
2023/06/05 13:42:08;;;;;;;4.03;2.30;;;;;;;;;;6371407;22;20019;-75
2023/06/05 13:44:36;;;;;;;3.05;2.00;;;;;;;;;;6371348;22;20014;-76
2023/06/05 13:47:03;;;;;;;2.65;2.30;;;;;;;;;;6371307;22;20018;-76
2023/06/05 13:49:31;;;;;;;3.50;2.53;;;;;;;;;;6343159;22;20406;-76
2023/06/05 13:51:58;;;;;;;5.80;2.13;;;;;;;;;;6371307;22;20014;-74
2023/06/05 13:54:26;;;;;;;3.17;1.98;;;;;;;;;;6343588;22;20017;-76
2023/06/05 13:56:54;;;;;;;3.10;2.13;;;;;;;;;;6343630;22;20014;-76
2023/06/05 13:59:21;;;;;;;3.50;2.00;;;;;;;;;;6371252;22;20010;-76
2023/06/05 14:01:49;;;;;;;6.00;3.20;;;;;;;;;;6370919;22;20019;-76
2023/06/05 14:04:17;;;;;;;6.07;4.00;;;;;;;;;;6371233;22;20101;-74
2023/06/05 14:06:44;;;;;;;5.78;3.13;;;;;;;;;;6371216;22;20018;-76
2023/06/05 14:09:12;;;;;;;5.75;2.88;;;;;;;;;;6371078;22;20068;-75
2023/06/05 14:11:44;;;;;;;3.92;2.42;;;;;;;;;;6370985;22;20018;-75
2023/06/05 14:14:12;;;;;;;4.13;2.70;;;;;;;;;;6371290;22;20067;-75
2023/06/05 14:16:39;;;;;;;3.97;2.03;;;;;;;;;;6371256;22;20026;-75
2023/06/05 14:19:07;;;;;;;4.32;2.30;;;;;;;;;;6371452;22;20011;-76
2023/06/05 14:21:35;;;;;;;4.07;2.60;;;;;;;;;;6370903;22;20018;-76
2023/06/05 14:24:02;;;;;;;3.72;1.85;;;;;;;;;;6370833;22;20017;-76
2023/06/05 14:26:30;;;;;;;3.33;2.20;;;;;;;;;;6370881;22;20511;-73
2023/06/05 14:28:58;;;;;;;5.38;2.22;;;;;;;;;;6370655;22;20014;-75
2023/06/05 14:31:27;;;;;;;3.40;2.00;;;;;;;;;;6370721;22;20093;-74
2023/06/05 14:33:55;;;;;;;9.70;2.00;;;;;;;;;;6370730;22;20048;-74
2023/06/05 14:36:23;;;;;;;2.90;2.10;;;;;;;;;;6370526;22;20059;-74
2023/06/05 14:38:50;;;;;;;3.08;2.10;;;;;;;;;;6370512;22;20044;-74
2023/06/05 14:41:18;;;;;;;3.05;2.05;;;;;;;;;;6370530;22;20014;-74
2023/06/05 14:43:45;;;;;;;3.33;2.00;;;;;;;;;;6370650;22;20455;-74
2023/06/05 14:46:13;;;;;;;3.22;1.95;;;;;;;;;;6370594;22;20021;-74
2023/06/05 14:48:41;;;;;;;3.95;2.10;;;;;;;;;;6370916;22;20428;-74
2023/06/05 14:51:09;;;;;;;6.28;2.72;;;;;;;;;;6370650;22;20380;-73
2023/06/05 14:53:37;;;;;;;4.55;2.40;;;;;;;;;;6370540;22;20014;-75
2023/06/05 14:56:05;;;;;;;4.55;2.40;;;;;;;;;;6370842;22;20014;-74
2023/06/05 14:58:32;;;;;;;3.65;2.47;;;;;;;;;;6370583;22;20019;-75
2023/06/05 15:01:00;;;;;;;6.68;2.70;;;;;;;;;;6371016;22;20018;-73
2023/06/05 15:03:27;;;;;;;5.10;2.72;;;;;;;;;;6370294;22;20090;-75
2023/06/05 15:06:00;;;;;;;5.65;2.40;;;;;;;;;;6370491;22;20344;-74
2023/06/05 15:08:48;;;;;;;4.22;2.35;;;;;;;;;;6370558;22;20018;-76
2023/06/05 15:11:16;;;;;;;3.25;2.00;;;;;;;;;;6370447;22;20029;-73
2023/06/05 15:13:44;;;;;;;2.92;2.33;;;;;;;;;;6370534;22;20014;-74
2023/06/05 15:16:11;;;;;;;3.95;2.38;;;;;;;;;;6370331;22;20011;-75
2023/06/05 15:18:39;;;;;;;5.65;2.60;;;;;;;;;;6370465;22;20015;-75
2023/06/05 15:21:06;;;;;;;4.75;2.45;;;;;;;;;;6370637;22;20025;-75
2023/06/05 15:23:34;;;;;;;3.90;2.70;;;;;;;;;;6370449;22;20375;-76
2023/06/05 15:26:02;;;;;;;6.65;2.80;;;;;;;;;;6370322;22;20020;-76
2023/06/05 15:28:29;;;;;;;3.10;2.30;;;;;;;;;;6370340;22;20019;-75
2023/06/05 15:30:57;;;;;;;4.38;2.97;;;;;;;;;;6370090;22;20017;-74
2023/06/05 15:33:24;;;;;;;7.78;4.35;;;;;;;;;;6342300;22;20026;-74
2023/06/05 15:35:52;;;;;;;4.28;2.58;;;;;;;;;;6370087;22;20017;-73
2023/06/05 15:38:19;;;;;;;3.65;1.95;;;;;;;;;;6370361;22;20022;-74
2023/06/05 15:40:47;;;;;;;3.45;2.30;;;;;;;;;;6370129;22;20042;-74
2023/06/05 15:43:14;;;;;;;3.95;2.47;;;;;;;;;;6370359;22;20133;-76
2023/06/05 15:45:42;;;;;;;4.45;2.33;;;;;;;;;;6369450;22;20014;-77
2023/06/05 15:48:11;;;;;;;7.28;3.53;;;;;;;;;;6368851;22;20117;-74
2023/06/05 15:50:39;;;;;;;5.45;2.50;;;;;;;;;;6341745;22;20015;-75
2023/06/05 15:53:07;;;;;;;2.63;2.05;;;;;;;;;;6369895;22;20014;-74
2023/06/05 15:55:37;;;;;;;4.22;2.45;;;;;;;;;;6369721;22;20033;-74
2023/06/05 15:58:05;;;;;;;4.68;2.35;;;;;;;;;;6369522;22;20015;-74
2023/06/05 16:00:33;;;;;;;7.05;2.75;;;;;;;;;;6369423;22;20067;-74
2023/06/05 16:03:00;;;;;;;5.97;2.42;;;;;;;;;;6369417;22;20387;-74
2023/06/05 16:05:28;;;;;;;4.28;2.35;;;;;;;;;;6342191;22;20021;-75
2023/06/05 16:07:56;;;;;;;4.53;2.10;;;;;;;;;;6369165;22;20393;-74
2023/06/05 16:10:23;;;;;;;5.05;2.28;;;;;;;;;;6369317;22;20134;-75
2023/06/05 16:12:51;;;;;;;4.72;2.20;;;;;;;;;;6369203;22;20336;-77
2023/06/05 16:15:19;;;;;;;4.80;2.25;;;;;;;;;;6369171;22;20014;-74
2023/06/05 16:17:46;;;;;;;2.97;2.00;;;;;;;;;;6369671;22;20097;-73
2023/06/05 16:20:14;;;;;;;4.45;2.33;;;;;;;;;;6369524;22;20014;-76
2023/06/05 16:22:43;;;;;;;5.50;2.10;;;;;;;;;;6369269;22;20038;-74
2023/06/05 16:25:11;;;;;;;6.55;3.10;;;;;;;;;;6369171;22;20093;-74